Time;durP1;ratioP1;P1;durP2;ratioP2;P2;SDS_P1;SDS_P2;PMS_P1;PMS_P2;Temp;Humidity;BMP_temperature;BMP_pressure;BME280_temperature;BME280_humidity;BME280_pressure;Samples;Min_cycle;Max_cycle;Signal;HPM_P1;HPM_P2
2024/04/07 00:01:12;;;;;;;;;28.00;5.50;;;;;;;;10448152;28;43238;-64
2024/04/07 00:06:15;;;;;;;;;26.25;7.25;;;;;;;;10463706;28;43766;-64
2024/04/07 00:11:19;;;;;;;;;36.00;7.00;;;;;;;;10453765;28;43185;-66
2024/04/07 00:16:23;;;;;;;;;34.00;7.75;;;;;;;;10431123;28;43589;-64
2024/04/07 00:21:27;;;;;;;;;32.50;7.50;;;;;;;;10424457;28;42970;-62
2024/04/07 00:26:31;;;;;;;;;27.75;7.75;;;;;;;;10452164;28;42970;-65
2024/04/07 00:31:34;;;;;;;;;26.25;7.25;;;;;;;;10435933;28;44549;-64
2024/04/07 00:36:38;;;;;;;;;28.00;6.25;;;;;;;;10459737;28;44167;-63
2024/04/07 00:41:41;;;;;;;;;27.75;4.25;;;;;;;;10452035;28;43028;-63
2024/04/07 00:46:46;;;;;;;;;27.75;7.50;;;;;;;;10454739;28;43207;-64
2024/04/07 00:51:49;;;;;;;;;30.50;7.00;;;;;;;;10468515;28;43189;-64
2024/04/07 00:56:53;;;;;;;;;40.00;9.50;;;;;;;;10456958;28;43249;-65
2024/04/07 01:01:57;;;;;;;;;28.25;9.00;;;;;;;;10458093;28;44184;-64
2024/04/07 01:07:00;;;;;;;;;28.75;8.50;;;;;;;;10477924;28;44540;-60
2024/04/07 01:12:11;;;;;;;;;28.00;7.00;;;;;;;;10462610;28;44031;-63
2024/04/07 01:17:15;;;;;;;;;28.00;9.25;;;;;;;;10466471;28;43060;-63
2024/04/07 01:22:18;;;;;;;;;29.00;4.25;;;;;;;;10465112;28;44627;-66
2024/04/07 01:27:22;;;;;;;;;36.00;7.75;;;;;;;;10457535;28;43057;-65
2024/04/07 01:32:25;;;;;;;;;19.25;6.00;;;;;;;;10444155;28;43689;-61
2024/04/07 01:37:29;;;;;;;;;25.25;8.00;;;;;;;;10431773;28;43769;-60
2024/04/07 01:42:33;;;;;;;;;34.00;7.25;;;;;;;;10423590;28;43671;-63
2024/04/07 01:47:37;;;;;;;;;33.25;8.75;;;;;;;;10431839;28;43084;-62
2024/04/07 01:52:41;;;;;;;;;30.25;6.75;;;;;;;;10416874;28;42952;-64
2024/04/07 01:57:45;;;;;;;;;35.00;9.75;;;;;;;;10388837;28;43582;-63
2024/04/07 02:02:48;;;;;;;;;26.00;4.25;;;;;;;;10418008;28;43583;-62
2024/04/07 02:07:52;;;;;;;;;40.50;10.25;;;;;;;;10429857;27;43343;-62
2024/04/07 02:12:56;;;;;;;;;26.25;7.50;;;;;;;;10430767;28;44195;-61
2024/04/07 02:18:00;;;;;;;;;25.75;4.75;;;;;;;;10430412;28;43601;-60
2024/04/07 02:23:04;;;;;;;;;25.00;5.25;;;;;;;;10429569;28;43441;-64
2024/04/07 02:28:08;;;;;;;;;30.25;6.00;;;;;;;;10430037;28;43690;-61
2024/04/07 02:33:12;;;;;;;;;28.00;4.00;;;;;;;;10413410;28;43938;-58
2024/04/07 02:38:16;;;;;;;;;29.75;4.50;;;;;;;;10433175;28;43433;-59
2024/04/07 02:43:20;;;;;;;;;28.75;4.75;;;;;;;;10432640;28;43191;-63
2024/04/07 02:48:23;;;;;;;;;25.00;4.00;;;;;;;;10423456;28;43004;-61
2024/04/07 02:53:27;;;;;;;;;26.00;4.00;;;;;;;;10406722;28;43772;-59
2024/04/07 02:58:30;;;;;;;;;22.75;4.00;;;;;;;;10419500;28;42963;-62
2024/04/07 03:03:34;;;;;;;;;21.75;2.75;;;;;;;;10427677;28;43507;-63
2024/04/07 03:08:38;;;;;;;;;39.50;4.25;;;;;;;;10433618;28;44354;-65
2024/04/07 03:13:41;;;;;;;;;21.00;4.00;;;;;;;;10436537;28;44294;-60
2024/04/07 03:18:44;;;;;;;;;24.75;4.75;;;;;;;;10401249;28;43076;-63
2024/04/07 03:23:48;;;;;;;;;21.25;2.25;;;;;;;;10386141;28;42980;-62
2024/04/07 03:28:52;;;;;;;;;18.25;2.00;;;;;;;;10392085;28;43050;-62
2024/04/07 03:33:55;;;;;;;;;25.75;3.75;;;;;;;;10411599;28;43400;-62
2024/04/07 03:38:58;;;;;;;;;21.25;4.00;;;;;;;;10433297;28;43014;-65
2024/04/07 03:44:01;;;;;;;;;23.25;2.75;;;;;;;;10419798;28;42979;-65
2024/04/07 03:49:06;;;;;;;;;19.75;3.75;;;;;;;;10430078;28;44045;-65
2024/04/07 03:54:09;;;;;;;;;22.25;3.00;;;;;;;;10455667;28;43057;-65
2024/04/07 03:59:13;;;;;;;;;20.75;2.25;;;;;;;;10426078;28;43920;-65
2024/04/07 04:04:16;;;;;;;;;22.50;2.50;;;;;;;;10462620;28;42983;-63
2024/04/07 04:09:21;;;;;;;;;25.75;5.00;;;;;;;;10462297;28;43734;-65
2024/04/07 04:14:27;;;;;;;;;25.75;2.00;;;;;;;;10420814;28;43079;-59
2024/04/07 04:19:31;;;;;;;;;18.50;1.75;;;;;;;;10431342;28;43576;-65
2024/04/07 04:24:35;;;;;;;;;23.00;3.75;;;;;;;;10471980;28;42986;-62
2024/04/07 04:29:39;;;;;;;;;20.75;2.50;;;;;;;;10456225;28;43254;-59
2024/04/07 04:34:42;;;;;;;;;19.00;1.00;;;;;;;;10446862;28;44161;-62
2024/04/07 04:39:46;;;;;;;;;22.75;2.75;;;;;;;;10464703;28;43084;-62
2024/04/07 04:44:49;;;;;;;;;24.50;1.75;;;;;;;;10478416;28;43200;-62
2024/04/07 04:49:55;;;;;;;;;16.00;1.25;;;;;;;;10478175;28;42946;-62
2024/04/07 04:54:58;;;;;;;;;27.00;2.50;;;;;;;;10463361;28;43704;-62
2024/04/07 05:00:02;;;;;;;;;14.75;0.75;;;;;;;;10469348;28;43603;-65
2024/04/07 05:05:06;;;;;;;;;25.50;1.00;;;;;;;;10464414;28;49557;-65
2024/04/07 05:10:09;;;;;;;;;24.25;3.00;;;;;;;;10460529;28;48609;-65
2024/04/07 05:15:13;;;;;;;;;15.25;2.25;;;;;;;;10480208;28;49747;-64
2024/04/07 05:20:16;;;;;;;;;23.75;2.50;;;;;;;;10507608;27;48536;-64
2024/04/07 05:25:20;;;;;;;;;20.50;3.75;;;;;;;;10470605;28;48959;-64
2024/04/07 05:30:22;;;;;;;;;19.50;1.75;;;;;;;;10481821;28;43653;-64
2024/04/07 05:35:26;;;;;;;;;26.75;1.25;;;;;;;;10474652;28;42966;-65
2024/04/07 05:40:29;;;;;;;;;20.75;2.00;;;;;;;;10450962;28;43271;-64
2024/04/07 05:45:31;;;;;;;;;26.75;2.00;;;;;;;;10470018;28;48415;-62
2024/04/07 05:50:36;;;;;;;;;18.25;4.00;;;;;;;;10455415;28;43027;-62
2024/04/07 05:55:39;;;;;;;;;21.75;0.75;;;;;;;;10471413;28;48304;-63
2024/04/07 06:00:43;;;;;;;;;21.00;1.00;;;;;;;;10473674;27;43100;-62
2024/04/07 06:05:46;;;;;;;;;17.75;1.25;;;;;;;;10472674;28;48810;-62
2024/04/07 06:10:51;;;;;;;;;20.75;3.75;;;;;;;;10446919;28;48852;-62
2024/04/07 06:15:54;;;;;;;;;23.50;4.00;;;;;;;;10432251;28;48305;-62
2024/04/07 06:20:58;;;;;;;;;19.50;1.25;;;;;;;;10432713;28;49508;-59
2024/04/07 06:26:02;;;;;;;;;23.50;3.00;;;;;;;;10429254;28;49324;-61
2024/04/07 06:31:05;;;;;;;;;20.00;2.00;;;;;;;;10431523;28;43601;-62
2024/04/07 06:36:08;;;;;;;;;24.50;2.00;;;;;;;;10437249;28;48874;-62
2024/04/07 06:41:12;;;;;;;;;18.75;2.00;;;;;;;;10460188;28;43264;-63
2024/04/07 06:46:14;;;;;;;;;17.50;1.25;;;;;;;;10455679;28;43607;-63
2024/04/07 06:51:19;;;;;;;;;18.75;2.00;;;;;;;;10422350;28;43678;-63
2024/04/07 06:56:22;;;;;;;;;22.50;2.00;;;;;;;;10453282;28;43047;-62
2024/04/07 07:01:24;;;;;;;;;25.25;2.50;;;;;;;;10419531;28;42908;-62
2024/04/07 07:06:28;;;;;;;;;25.00;0.75;;;;;;;;10409338;28;42981;-62
2024/04/07 07:11:31;;;;;;;;;21.00;1.00;;;;;;;;10462285;28;43490;-63
2024/04/07 07:16:35;;;;;;;;;20.00;4.50;;;;;;;;10445496;27;43019;-63
2024/04/07 07:21:39;;;;;;;;;16.75;0.50;;;;;;;;10461023;28;43080;-63
2024/04/07 07:26:43;;;;;;;;;15.50;1.25;;;;;;;;10461204;28;43176;-63
2024/04/07 07:31:46;;;;;;;;;16.50;0.00;;;;;;;;10448358;28;42980;-63
2024/04/07 07:36:50;;;;;;;;;19.00;1.00;;;;;;;;10466074;28;44402;-62
2024/04/07 07:41:53;;;;;;;;;23.75;2.00;;;;;;;;10457478;28;43695;-62
2024/04/07 07:46:58;;;;;;;;;17.00;2.00;;;;;;;;10454450;28;42975;-62
2024/04/07 07:52:01;;;;;;;;;18.50;4.50;;;;;;;;10463644;27;42936;-62
2024/04/07 07:57:05;;;;;;;;;16.75;1.75;;;;;;;;10468395;28;43028;-63
2024/04/07 08:02:08;;;;;;;;;23.25;3.50;;;;;;;;10459341;28;43857;-66
2024/04/07 08:07:13;;;;;;;;;29.75;3.00;;;;;;;;10470344;28;42931;-64
2024/04/07 08:12:16;;;;;;;;;27.50;1.00;;;;;;;;10460133;28;43035;-65
2024/04/07 08:17:19;;;;;;;;;30.50;1.25;;;;;;;;10453552;28;43107;-65
2024/04/07 08:22:23;;;;;;;;;35.50;6.25;;;;;;;;10460547;28;42968;-65
2024/04/07 08:27:26;;;;;;;;;37.25;6.00;;;;;;;;10448400;28;44081;-65
2024/04/07 08:32:30;;;;;;;;;28.00;5.25;;;;;;;;10449251;28;43232;-65
2024/04/07 08:37:34;;;;;;;;;37.25;5.25;;;;;;;;10445193;28;43772;-65
2024/04/07 08:42:40;;;;;;;;;24.75;2.00;;;;;;;;10461885;28;42956;-66
2024/04/07 08:47:45;;;;;;;;;37.00;2.00;;;;;;;;10443176;28;43329;-66
2024/04/07 08:52:49;;;;;;;;;39.75;4.25;;;;;;;;10452631;28;42998;-66
2024/04/07 08:57:53;;;;;;;;;28.25;3.50;;;;;;;;10433578;28;43789;-66
2024/04/07 09:02:59;;;;;;;;;30.50;1.50;;;;;;;;10433653;28;44431;-66
2024/04/07 09:08:02;;;;;;;;;33.50;2.75;;;;;;;;10452673;28;43150;-65
2024/04/07 09:13:05;;;;;;;;;26.50;2.25;;;;;;;;10452293;28;48997;-66
2024/04/07 09:18:12;;;;;;;;;24.00;1.75;;;;;;;;10456050;28;43086;-64
2024/04/07 09:23:15;;;;;;;;;24.25;2.00;;;;;;;;10456076;28;43113;-63
2024/04/07 09:28:19;;;;;;;;;27.25;3.50;;;;;;;;10463051;28;43324;-64
2024/04/07 09:33:23;;;;;;;;;38.75;8.75;;;;;;;;10443999;28;43084;-63
2024/04/07 09:38:26;;;;;;;;;32.25;3.00;;;;;;;;10430738;28;43040;-65
2024/04/07 09:43:31;;;;;;;;;24.25;3.00;;;;;;;;10392873;28;43139;-62
2024/04/07 09:48:36;;;;;;;;;20.25;1.00;;;;;;;;10395812;28;43117;-64
2024/04/07 09:53:40;;;;;;;;;42.25;4.50;;;;;;;;10396770;28;43011;-63
2024/04/07 09:58:44;;;;;;;;;21.50;3.00;;;;;;;;10400105;28;43970;-62
2024/04/07 10:03:49;;;;;;;;;21.50;3.00;;;;;;;;10397033;28;42992;-62
2024/04/07 10:08:53;;;;;;;;;24.25;3.00;;;;;;;;10399570;28;43303;-63
2024/04/07 10:13:57;;;;;;;;;30.75;2.50;;;;;;;;10389631;28;44274;-65
2024/04/07 10:19:00;;;;;;;;;22.00;3.50;;;;;;;;10390064;28;43214;-65
2024/04/07 10:24:06;;;;;;;;;26.75;3.50;;;;;;;;10391750;28;43074;-67
2024/04/07 10:29:09;;;;;;;;;35.50;4.00;;;;;;;;10388370;28;42989;-63
2024/04/07 10:34:13;;;;;;;;;35.00;7.00;;;;;;;;10387505;28;42978;-64
2024/04/07 10:39:16;;;;;;;;;31.50;4.00;;;;;;;;10396394;28;43374;-65
2024/04/07 10:44:20;;;;;;;;;23.00;3.00;;;;;;;;10387520;28;43635;-65
2024/04/07 10:49:26;;;;;;;;;29.50;4.25;;;;;;;;10373092;28;43621;-63
2024/04/07 10:54:33;;;;;;;;;37.25;4.00;;;;;;;;10388019;28;43714;-63
2024/04/07 10:59:36;;;;;;;;;31.00;9.25;;;;;;;;10372781;28;43146;-63
2024/04/07 11:04:41;;;;;;;;;26.50;3.00;;;;;;;;10386393;28;44468;-63
2024/04/07 11:09:45;;;;;;;;;27.50;5.00;;;;;;;;10395268;28;43008;-64
2024/04/07 11:14:48;;;;;;;;;27.00;3.50;;;;;;;;10389802;28;43035;-65
2024/04/07 11:19:55;;;;;;;;;39.75;7.50;;;;;;;;10372637;28;43583;-65
2024/04/07 11:24:59;;;;;;;;;41.75;9.50;;;;;;;;10389046;28;43025;-63
2024/04/07 11:30:02;;;;;;;;;30.50;4.25;;;;;;;;10387271;28;49304;-64
2024/04/07 11:35:06;;;;;;;;;36.00;3.00;;;;;;;;10388125;28;48493;-63
2024/04/07 11:40:09;;;;;;;;;41.50;5.50;;;;;;;;10432683;28;48473;-63
2024/04/07 11:45:13;;;;;;;;;34.00;3.75;;;;;;;;10496268;28;49417;-65
2024/04/07 11:50:18;;;;;;;;;32.75;5.00;;;;;;;;10495758;28;42911;-65
2024/04/07 11:55:21;;;;;;;;;25.00;4.00;;;;;;;;10479463;28;48607;-64
2024/04/07 12:00:24;;;;;;;;;39.25;4.50;;;;;;;;10494660;28;49090;-63
2024/04/07 12:05:27;;;;;;;;;36.00;4.50;;;;;;;;10490290;28;43045;-64
2024/04/07 12:10:31;;;;;;;;;27.25;5.75;;;;;;;;10477777;28;48903;-65
2024/04/07 12:15:35;;;;;;;;;33.25;3.00;;;;;;;;10450566;28;48520;-65
2024/04/07 12:20:38;;;;;;;;;34.50;3.75;;;;;;;;10464448;28;46099;-64
2024/04/07 12:25:42;;;;;;;;;31.25;3.25;;;;;;;;10465993;28;48742;-65
2024/04/07 12:30:46;;;;;;;;;31.50;8.00;;;;;;;;10453187;28;43372;-63
2024/04/07 12:35:51;;;;;;;;;29.00;5.25;;;;;;;;10461066;28;48581;-60
2024/04/07 12:40:55;;;;;;;;;35.50;4.25;;;;;;;;10495334;27;49513;-62
2024/04/07 12:45:58;;;;;;;;;28.50;5.50;;;;;;;;10501561;27;48541;-64
2024/04/07 12:51:03;;;;;;;;;30.50;5.50;;;;;;;;10495127;28;43526;-64
2024/04/07 12:56:09;;;;;;;;;34.75;7.00;;;;;;;;10500995;27;44733;-64
2024/04/07 13:01:13;;;;;;;;;25.00;4.75;;;;;;;;10489653;28;43605;-64
2024/04/07 13:06:18;;;;;;;;;31.25;4.50;;;;;;;;10475176;28;43330;-64
2024/04/07 13:11:23;;;;;;;;;35.00;3.75;;;;;;;;10459683;28;43013;-63
2024/04/07 13:16:27;;;;;;;;;30.25;5.25;;;;;;;;10476279;27;44826;-64
2024/04/07 13:21:30;;;;;;;;;25.75;3.00;;;;;;;;10481999;28;44301;-64
2024/04/07 13:26:34;;;;;;;;;25.25;3.25;;;;;;;;10483797;28;42983;-63
2024/04/07 13:31:38;;;;;;;;;30.75;4.25;;;;;;;;10498850;28;43105;-63
2024/04/07 13:36:42;;;;;;;;;26.25;6.50;;;;;;;;10499925;28;42897;-64
2024/04/07 13:41:47;;;;;;;;;22.75;7.75;;;;;;;;10487865;28;43079;-64
2024/04/07 13:46:54;;;;;;;;;25.00;5.25;;;;;;;;10498786;27;43076;-63
2024/04/07 13:51:57;;;;;;;;;34.00;4.75;;;;;;;;10458047;28;42992;-63
2024/04/07 13:57:03;;;;;;;;;19.75;3.75;;;;;;;;10457385;28;43589;-63
2024/04/07 14:02:06;;;;;;;;;27.25;4.50;;;;;;;;10457307;28;43912;-63
2024/04/07 14:07:10;;;;;;;;;22.00;3.25;;;;;;;;10459676;28;43654;-63
2024/04/07 14:12:13;;;;;;;;;22.50;6.00;;;;;;;;10499336;28;42956;-63
2024/04/07 14:17:17;;;;;;;;;14.75;1.75;;;;;;;;10497829;28;44497;-62
2024/04/07 14:22:21;;;;;;;;;28.25;6.75;;;;;;;;10478700;28;43016;-62
2024/04/07 14:27:25;;;;;;;;;27.25;3.00;;;;;;;;10452736;28;43283;-63
2024/04/07 14:32:29;;;;;;;;;25.25;4.75;;;;;;;;10420654;28;43184;-63
2024/04/07 14:37:33;;;;;;;;;29.75;6.00;;;;;;;;10455480;28;43611;-63
2024/04/07 14:42:36;;;;;;;;;25.50;3.25;;;;;;;;10438114;28;45271;-63
2024/04/07 14:47:41;;;;;;;;;30.25;4.50;;;;;;;;10473788;28;43649;-63
2024/04/07 14:52:48;;;;;;;;;34.75;7.00;;;;;;;;10492463;28;43926;-62
2024/04/07 14:57:56;;;;;;;;;27.25;3.25;;;;;;;;10454238;28;43005;-63
2024/04/07 15:03:01;;;;;;;;;25.50;5.75;;;;;;;;10436379;28;45281;-63
2024/04/07 15:08:05;;;;;;;;;21.75;6.50;;;;;;;;10453915;28;43073;-62
2024/04/07 15:13:09;;;;;;;;;27.50;7.25;;;;;;;;10454096;28;43563;-63
2024/04/07 15:18:12;;;;;;;;;23.25;5.25;;;;;;;;10453975;28;43813;-63
2024/04/07 15:23:16;;;;;;;;;27.75;6.75;;;;;;;;10453786;28;42943;-63
2024/04/07 15:28:22;;;;;;;;;29.00;5.00;;;;;;;;10453052;28;43117;-63
2024/04/07 15:33:27;;;;;;;;;21.00;4.75;;;;;;;;10452759;28;43062;-63
2024/04/07 15:38:30;;;;;;;;;28.00;10.25;;;;;;;;10435993;28;42973;-63
2024/04/07 15:43:34;;;;;;;;;24.50;4.00;;;;;;;;10427499;28;43433;-63
2024/04/07 15:48:40;;;;;;;;;27.00;6.25;;;;;;;;10434446;28;42878;-63
2024/04/07 15:53:43;;;;;;;;;26.25;7.00;;;;;;;;10436883;28;44048;-63
2024/04/07 15:58:47;;;;;;;;;26.75;8.25;;;;;;;;10430591;28;43097;-63
2024/04/07 16:03:51;;;;;;;;;28.75;7.25;;;;;;;;10392950;28;49210;-63
2024/04/07 16:08:54;;;;;;;;;32.75;8.25;;;;;;;;10428998;28;43686;-63
2024/04/07 16:13:58;;;;;;;;;24.50;6.00;;;;;;;;10428624;28;43802;-63
2024/04/07 16:19:01;;;;;;;;;29.00;9.00;;;;;;;;10427724;28;42975;-63
2024/04/07 16:24:05;;;;;;;;;23.25;6.25;;;;;;;;10427810;28;43608;-63
2024/04/07 16:29:10;;;;;;;;;33.25;8.00;;;;;;;;10428577;28;43333;-63
2024/04/07 16:34:14;;;;;;;;;26.25;8.75;;;;;;;;10412519;28;43782;-64
2024/04/07 16:39:18;;;;;;;;;26.50;8.25;;;;;;;;10428196;28;43037;-63
2024/04/07 16:44:22;;;;;;;;;33.75;12.00;;;;;;;;10410786;28;44462;-63
2024/04/07 16:49:26;;;;;;;;;28.75;7.50;;;;;;;;10428032;28;43384;-63
2024/04/07 16:54:29;;;;;;;;;24.25;7.00;;;;;;;;10427160;28;44449;-63
2024/04/07 16:59:33;;;;;;;;;24.75;8.00;;;;;;;;10427808;28;43035;-63
2024/04/07 17:04:36;;;;;;;;;24.50;7.50;;;;;;;;10427681;28;43026;-63
2024/04/07 17:09:40;;;;;;;;;34.75;8.50;;;;;;;;10427006;28;42992;-63
2024/04/07 17:14:44;;;;;;;;;22.00;6.00;;;;;;;;10392447;28;43573;-63
2024/04/07 17:19:47;;;;;;;;;28.25;10.00;;;;;;;;10362451;28;43963;-63
2024/04/07 17:24:51;;;;;;;;;24.50;7.00;;;;;;;;10347920;28;44827;-63
2024/04/07 17:29:55;;;;;;;;;26.50;7.25;;;;;;;;10389866;28;44121;-63
2024/04/07 17:34:59;;;;;;;;;27.00;10.50;;;;;;;;10391964;28;43132;-63
2024/04/07 17:40:04;;;;;;;;;21.75;7.25;;;;;;;;10391696;28;49618;-64
2024/04/07 17:45:09;;;;;;;;;30.75;6.00;;;;;;;;10433355;28;48766;-63
2024/04/07 17:50:13;;;;;;;;;21.75;6.25;;;;;;;;10459094;28;49646;-63
2024/04/07 17:55:17;;;;;;;;;26.25;6.50;;;;;;;;10458065;28;48726;-63
2024/04/07 18:00:21;;;;;;;;;26.50;7.75;;;;;;;;10459370;28;43051;-63
2024/04/07 18:05:24;;;;;;;;;25.75;10.00;;;;;;;;10477639;28;48530;-63
2024/04/07 18:10:28;;;;;;;;;31.50;8.75;;;;;;;;10458209;27;49536;-64
2024/04/07 18:15:35;;;;;;;;;24.75;8.25;;;;;;;;10466147;28;43120;-63
2024/04/07 18:20:40;;;;;;;;;31.50;7.00;;;;;;;;10458077;28;48217;-63
2024/04/07 18:25:43;;;;;;;;;22.00;7.25;;;;;;;;10455308;28;43121;-64
2024/04/07 18:30:47;;;;;;;;;22.00;9.00;;;;;;;;10475422;27;43065;-64
2024/04/07 18:35:51;;;;;;;;;24.25;7.50;;;;;;;;10461924;28;43213;-63
2024/04/07 18:40:55;;;;;;;;;26.75;7.00;;;;;;;;10454566;28;42944;-63
2024/04/07 18:46:00;;;;;;;;;26.00;9.75;;;;;;;;10424506;28;45283;-63
2024/04/07 18:51:03;;;;;;;;;23.00;9.75;;;;;;;;10456623;28;49696;-63
2024/04/07 18:56:08;;;;;;;;;23.75;10.25;;;;;;;;10456203;28;42983;-63
2024/04/07 19:01:21;;;;;;;;;28.25;9.00;;;;;;;;10455987;28;43007;-62
2024/04/07 19:06:24;;;;;;;;;22.50;9.75;;;;;;;;10456759;28;42981;-62
2024/04/07 19:11:26;;;;;;;;;26.25;6.75;;;;;;;;10439962;28;43320;-62
2024/04/07 19:16:28;;;;;;;;;26.75;12.25;;;;;;;;10496677;28;43752;-62
2024/04/07 19:21:31;;;;;;;;;24.50;9.25;;;;;;;;10497462;28;43718;-62
2024/04/07 19:26:34;;;;;;;;;22.75;7.25;;;;;;;;10461283;28;44051;-62
2024/04/07 19:31:38;;;;;;;;;22.00;6.75;;;;;;;;10454698;28;44057;-63
2024/04/07 19:36:42;;;;;;;;;22.75;8.00;;;;;;;;10453960;28;49018;-62
2024/04/07 19:41:49;;;;;;;;;31.50;8.50;;;;;;;;10452913;28;43032;-63
2024/04/07 19:46:54;;;;;;;;;27.50;6.00;;;;;;;;10480745;28;44533;-61
2024/04/07 19:51:57;;;;;;;;;23.75;6.25;;;;;;;;10492021;28;43480;-63
2024/04/07 19:57:01;;;;;;;;;27.50;11.75;;;;;;;;10495308;28;43767;-64
2024/04/07 20:02:05;;;;;;;;;21.75;6.25;;;;;;;;10449293;28;43557;-64
2024/04/07 20:07:08;;;;;;;;;22.50;7.25;;;;;;;;10453632;28;43022;-64
2024/04/07 20:12:11;;;;;;;;;20.25;6.75;;;;;;;;10452808;28;43020;-63
2024/04/07 20:17:16;;;;;;;;;21.25;5.75;;;;;;;;10466176;28;43313;-64
2024/04/07 20:22:19;;;;;;;;;25.00;8.75;;;;;;;;10478768;28;43563;-64
2024/04/07 20:27:23;;;;;;;;;24.50;9.75;;;;;;;;10452147;28;43783;-64
2024/04/07 20:32:26;;;;;;;;;25.75;9.25;;;;;;;;10435229;28;44995;-63
2024/04/07 20:37:30;;;;;;;;;29.00;6.50;;;;;;;;10452379;28;43043;-63
2024/04/07 20:42:34;;;;;;;;;29.25;9.25;;;;;;;;10453295;28;43027;-63
2024/04/07 20:47:38;;;;;;;;;30.25;8.25;;;;;;;;10452813;28;42973;-64
2024/04/07 20:52:41;;;;;;;;;25.75;9.25;;;;;;;;10451895;28;42970;-64
2024/04/07 20:57:45;;;;;;;;;25.25;7.75;;;;;;;;10458550;28;43386;-64
2024/04/07 21:02:49;;;;;;;;;27.50;7.00;;;;;;;;10496827;27;43093;-64
2024/04/07 21:07:53;;;;;;;;;28.25;10.00;;;;;;;;10501342;28;43143;-63
2024/04/07 21:12:57;;;;;;;;;22.50;9.75;;;;;;;;10501796;28;43133;-63
2024/04/07 21:18:01;;;;;;;;;25.50;9.25;;;;;;;;10486119;28;43582;-65
2024/04/07 21:23:04;;;;;;;;;29.50;10.50;;;;;;;;10458752;28;43611;-65
2024/04/07 21:28:07;;;;;;;;;28.00;8.25;;;;;;;;10458778;28;43017;-65
2024/04/07 21:33:11;;;;;;;;;25.50;9.25;;;;;;;;10458250;28;43061;-65
2024/04/07 21:38:15;;;;;;;;;27.25;11.50;;;;;;;;10458368;28;43802;-62
2024/04/07 21:43:18;;;;;;;;;30.75;11.00;;;;;;;;10429069;28;43054;-66
2024/04/07 21:48:23;;;;;;;;;28.25;8.25;;;;;;;;10416938;28;44301;-62
2024/04/07 21:53:26;;;;;;;;;35.50;13.00;;;;;;;;10425308;28;43683;-64
2024/04/07 21:58:29;;;;;;;;;29.50;13.00;;;;;;;;10432619;28;42937;-64
2024/04/07 22:03:32;;;;;;;;;27.75;11.00;;;;;;;;10433802;28;43053;-64
2024/04/07 22:08:36;;;;;;;;;23.25;9.75;;;;;;;;10431984;28;43384;-64
2024/04/07 22:13:40;;;;;;;;;24.50;10.25;;;;;;;;10433861;28;43747;-63
2024/04/07 22:18:44;;;;;;;;;39.00;11.75;;;;;;;;10409435;28;43338;-63
2024/04/07 22:23:47;;;;;;;;;25.50;11.75;;;;;;;;10408323;28;43056;-63
2024/04/07 22:28:51;;;;;;;;;27.00;10.25;;;;;;;;10402676;28;42947;-63
2024/04/07 22:33:54;;;;;;;;;30.25;11.00;;;;;;;;10416552;28;42988;-65
2024/04/07 22:38:58;;;;;;;;;29.50;12.75;;;;;;;;10402424;28;43444;-63
2024/04/07 22:44:02;;;;;;;;;30.75;11.75;;;;;;;;10393727;28;43780;-64
2024/04/07 22:49:07;;;;;;;;;34.75;11.25;;;;;;;;10392395;28;43027;-63
2024/04/07 22:54:11;;;;;;;;;33.50;13.50;;;;;;;;10372597;28;43634;-61
2024/04/07 22:59:14;;;;;;;;;32.75;12.50;;;;;;;;10375284;28;43826;-61
2024/04/07 23:04:20;;;;;;;;;38.00;14.75;;;;;;;;10388651;28;43009;-62
2024/04/07 23:09:23;;;;;;;;;33.50;11.75;;;;;;;;10378782;28;43540;-63
2024/04/07 23:14:27;;;;;;;;;34.50;8.75;;;;;;;;10396822;28;43181;-63
2024/04/07 23:19:31;;;;;;;;;32.25;10.75;;;;;;;;10389369;28;43032;-63
2024/04/07 23:24:36;;;;;;;;;29.75;10.50;;;;;;;;10388434;28;43580;-65
2024/04/07 23:29:39;;;;;;;;;36.25;12.75;;;;;;;;10392906;28;42930;-66
2024/04/07 23:34:43;;;;;;;;;36.50;13.75;;;;;;;;10388949;28;42948;-65
2024/04/07 23:39:48;;;;;;;;;33.00;11.50;;;;;;;;10394227;28;44098;-62
2024/04/07 23:44:52;;;;;;;;;35.75;13.25;;;;;;;;10427170;28;43009;-62
2024/04/07 23:49:56;;;;;;;;;43.50;14.25;;;;;;;;10424469;28;43770;-60
2024/04/07 23:55:00;;;;;;;;;39.50;14.50;;;;;;;;10426857;28;43011;-61
